<?xml version="1.0" encoding="UTF-8"?><gpx xmlns="http://www.topografix.com/GPX/1/1"  creator="TraceDeTrail http://www.tracedetrail.fr" version="1.1" xmlns:xsi="http://www.w3.org/2001/XMLSchema-instance" xsi:schemaLocation="http://www.topografix.com/GPX/1/1 http://www.topografix.com/GPX/1/1/gpx.xsd "><metadata><name>Le 3 du Var  Marche randonnee ROCHEFORT  10 KM</name><link href="http://tracedetrail.fr/fr/trace/trace/212629"><text>methode de calcul : astergdem </text></link></metadata><trk><name>Le 3 du Var  Marche randonnee ROCHEFORT  10 KM sur TraceDeTrail.fr</name><trkseg><trkpt lat="43.73124" lon="6.62036"><ele>970</ele><time>2000-01-01T00:04:32.000Z</time></trkpt><trkpt lat="43.73116" lon="6.62044"><time>2000-01-01T00:04:42.000Z</time></trkpt><trkpt lat="43.73119" lon="6.62055"><time>2000-01-01T00:04:52.000Z</time></trkpt><trkpt lat="43.73123" lon="6.62066"><ele>968</ele><time>2000-01-01T00:05:02.000Z</time></trkpt><trkpt lat="43.73124" lon="6.62076"><time>2000-01-01T00:05:12.000Z</time></trkpt><trkpt lat="43.73123" lon="6.62088"><time>2000-01-01T00:05:22.000Z</time></trkpt><trkpt lat="43.73119" lon="6.62097"><ele>967</ele><time>2000-01-01T00:05:32.000Z</time></trkpt><trkpt lat="43.73115" lon="6.62104"><time>2000-01-01T00:05:42.000Z</time></trkpt><trkpt lat="43.73112" lon="6.62104"><time>2000-01-01T00:05:52.000Z</time></trkpt><trkpt lat="43.73096" lon="6.62087"><ele>967</ele><time>2000-01-01T00:06:02.000Z</time></trkpt><trkpt lat="43.73082" lon="6.62071"><time>2000-01-01T00:06:12.000Z</time></trkpt><trkpt lat="43.73071" lon="6.62056"><ele>967</ele><time>2000-01-01T00:06:22.000Z</time></trkpt><trkpt lat="43.73067" lon="6.62055"><time>2000-01-01T00:06:32.000Z</time></trkpt><trkpt lat="43.73058" lon="6.62057"><time>2000-01-01T00:06:42.000Z</time></trkpt><trkpt lat="43.73053" lon="6.62055"><time>2000-01-01T00:06:52.000Z</time></trkpt><trkpt lat="43.73047" lon="6.6205"><ele>964</ele><time>2000-01-01T00:07:02.000Z</time></trkpt><trkpt lat="43.73031" lon="6.62022"><ele>964</ele><time>2000-01-01T00:07:12.000Z</time></trkpt><trkpt lat="43.73017" lon="6.61997"><ele>956</ele><time>2000-01-01T00:07:22.000Z</time></trkpt><trkpt lat="43.73006" lon="6.61991"><time>2000-01-01T00:07:32.000Z</time></trkpt><trkpt lat="43.72997" lon="6.61992"><ele>956</ele><time>2000-01-01T00:07:42.000Z</time></trkpt><trkpt lat="43.72984" lon="6.61967"><ele>955</ele><time>2000-01-01T00:07:52.000Z</time></trkpt><trkpt lat="43.72974" lon="6.61934"><ele>955</ele><time>2000-01-01T00:08:02.000Z</time></trkpt><trkpt lat="43.72963" lon="6.619"><ele>953</ele><time>2000-01-01T00:08:12.000Z</time></trkpt><trkpt lat="43.72952" lon="6.6187"><ele>952</ele><time>2000-01-01T00:08:22.000Z</time></trkpt><trkpt lat="43.72941" lon="6.61839"><ele>950</ele><time>2000-01-01T00:08:32.000Z</time></trkpt><trkpt lat="43.72928" lon="6.61799"><ele>949</ele><time>2000-01-01T00:08:42.000Z</time></trkpt><trkpt lat="43.72924" lon="6.61788"><time>2000-01-01T00:08:52.000Z</time></trkpt><trkpt lat="43.72901" lon="6.61767"><ele>949</ele><time>2000-01-01T00:09:02.000Z</time></trkpt><trkpt lat="43.72908" lon="6.61721"><ele>952</ele><time>2000-01-01T00:09:12.000Z</time></trkpt><trkpt lat="43.72921" lon="6.61674"><ele>955</ele><time>2000-01-01T00:09:22.000Z</time></trkpt><trkpt lat="43.72932" lon="6.61639"><ele>955</ele><time>2000-01-01T00:09:32.000Z</time></trkpt><trkpt lat="43.72954" lon="6.61592"><ele>955</ele><time>2000-01-01T00:09:42.000Z</time></trkpt><trkpt lat="43.72974" lon="6.6155"><ele>954</ele><time>2000-01-01T00:09:52.000Z</time></trkpt><trkpt lat="43.72983" lon="6.61529"><time>2000-01-01T00:10:02.000Z</time></trkpt><trkpt lat="43.72987" lon="6.61489"><ele>954</ele><time>2000-01-01T00:10:12.000Z</time></trkpt><trkpt lat="43.72991" lon="6.6147"><time>2000-01-01T00:10:22.000Z</time></trkpt><trkpt lat="43.72999" lon="6.61454"><ele>955</ele><time>2000-01-01T00:10:32.000Z</time></trkpt><trkpt lat="43.73035" lon="6.61412"><ele>959</ele><time>2000-01-01T00:10:42.000Z</time></trkpt><trkpt lat="43.73052" lon="6.61399"><time>2000-01-01T00:10:52.000Z</time></trkpt><trkpt lat="43.73071" lon="6.61394"><ele>964</ele><time>2000-01-01T00:11:02.000Z</time></trkpt><trkpt lat="43.7309" lon="6.61384"><ele>964</ele><time>2000-01-01T00:11:12.000Z</time></trkpt><trkpt lat="43.73112" lon="6.61368"><ele>969</ele><time>2000-01-01T00:11:22.000Z</time></trkpt><trkpt lat="43.73133" lon="6.61351"><ele>974</ele><time>2000-01-01T00:11:32.000Z</time></trkpt><trkpt lat="43.73163" lon="6.61335"><ele>977</ele><time>2000-01-01T00:11:42.000Z</time></trkpt><trkpt lat="43.73201" lon="6.61325"><ele>978</ele><time>2000-01-01T00:11:52.000Z</time></trkpt><trkpt lat="43.73211" lon="6.61319"><time>2000-01-01T00:12:02.000Z</time></trkpt><trkpt lat="43.7323" lon="6.61299"><ele>980</ele><time>2000-01-01T00:12:12.000Z</time></trkpt><trkpt lat="43.73246" lon="6.61278"><ele>980</ele><time>2000-01-01T00:12:22.000Z</time></trkpt><trkpt lat="43.73255" lon="6.61256"><time>2000-01-01T00:12:32.000Z</time></trkpt><trkpt lat="43.7326" lon="6.61245"><ele>981</ele><time>2000-01-01T00:12:42.000Z</time></trkpt><trkpt lat="43.73269" lon="6.61241"><time>2000-01-01T00:12:52.000Z</time></trkpt><trkpt lat="43.73274" lon="6.61214"><ele>982</ele><time>2000-01-01T00:13:02.000Z</time></trkpt><trkpt lat="43.7328" lon="6.61183"><ele>983</ele><time>2000-01-01T00:13:12.000Z</time></trkpt><trkpt lat="43.73292" lon="6.61146"><ele>983</ele><time>2000-01-01T00:13:22.000Z</time></trkpt><trkpt lat="43.73298" lon="6.61117"><ele>983</ele><time>2000-01-01T00:13:32.000Z</time></trkpt><trkpt lat="43.73303" lon="6.61086"><ele>983</ele><time>2000-01-01T00:13:42.000Z</time></trkpt><trkpt lat="43.73313" lon="6.61052"><ele>983</ele><time>2000-01-01T00:13:52.000Z</time></trkpt><trkpt lat="43.73323" lon="6.6102"><ele>983</ele><time>2000-01-01T00:14:02.000Z</time></trkpt><trkpt lat="43.73328" lon="6.60998"><time>2000-01-01T00:14:12.000Z</time></trkpt><trkpt lat="43.73332" lon="6.60978"><ele>977</ele><time>2000-01-01T00:14:22.000Z</time></trkpt><trkpt lat="43.73337" lon="6.60967"><time>2000-01-01T00:14:32.000Z</time></trkpt><trkpt lat="43.73348" lon="6.60952"><ele>975</ele><time>2000-01-01T00:14:42.000Z</time></trkpt><trkpt lat="43.73349" lon="6.60942"><time>2000-01-01T00:14:52.000Z</time></trkpt><trkpt lat="43.73346" lon="6.60924"><ele>977</ele><time>2000-01-01T00:15:02.000Z</time></trkpt><trkpt lat="43.73342" lon="6.60901"><time>2000-01-01T00:15:12.000Z</time></trkpt><trkpt lat="43.7333" lon="6.60874"><ele>977</ele><time>2000-01-01T00:15:22.000Z</time></trkpt><trkpt lat="43.73302" lon="6.60837"><ele>977</ele><time>2000-01-01T00:15:32.000Z</time></trkpt><trkpt lat="43.73302" lon="6.60826"><time>2000-01-01T00:15:42.000Z</time></trkpt><trkpt lat="43.73302" lon="6.60823"><time>2000-01-01T00:15:52.000Z</time></trkpt><trkpt lat="43.73298" lon="6.60819"><time>2000-01-01T00:16:02.000Z</time></trkpt><trkpt lat="43.73297" lon="6.60816"><time>2000-01-01T00:16:12.000Z</time></trkpt><trkpt lat="43.73296" lon="6.60811"><ele>988</ele><time>2000-01-01T00:16:22.000Z</time></trkpt><trkpt lat="43.73297" lon="6.60802"><time>2000-01-01T00:16:32.000Z</time></trkpt><trkpt lat="43.73297" lon="6.60794"><time>2000-01-01T00:16:42.000Z</time></trkpt><trkpt lat="43.73298" lon="6.60785"><time>2000-01-01T00:16:52.000Z</time></trkpt><trkpt lat="43.73297" lon="6.60753"><ele>991</ele><time>2000-01-01T00:17:02.000Z</time></trkpt><trkpt lat="43.73294" lon="6.60725"><ele>991</ele><time>2000-01-01T00:17:12.000Z</time></trkpt><trkpt lat="43.73292" lon="6.60708"><time>2000-01-01T00:17:22.000Z</time></trkpt><trkpt lat="43.73292" lon="6.60698"><ele>991</ele><time>2000-01-01T00:17:32.000Z</time></trkpt><trkpt lat="43.73291" lon="6.6069"><time>2000-01-01T00:17:42.000Z</time></trkpt><trkpt lat="43.73289" lon="6.60677"><time>2000-01-01T00:17:52.000Z</time></trkpt><trkpt lat="43.73289" lon="6.6067"><ele>990</ele><time>2000-01-01T00:18:02.000Z</time></trkpt><trkpt lat="43.73286" lon="6.60658"><time>2000-01-01T00:18:12.000Z</time></trkpt><trkpt lat="43.73283" lon="6.60648"><time>2000-01-01T00:18:22.000Z</time></trkpt><trkpt lat="43.73283" lon="6.60645"><time>2000-01-01T00:18:32.000Z</time></trkpt><trkpt lat="43.73282" lon="6.6064"><ele>990</ele><time>2000-01-01T00:18:42.000Z</time></trkpt><trkpt lat="43.73281" lon="6.60635"><time>2000-01-01T00:18:52.000Z</time></trkpt><trkpt lat="43.7328" lon="6.60621"><time>2000-01-01T00:19:02.000Z</time></trkpt><trkpt lat="43.7328" lon="6.60596"><ele>987</ele><time>2000-01-01T00:19:12.000Z</time></trkpt><trkpt lat="43.7328" lon="6.60572"><time>2000-01-01T00:19:22.000Z</time></trkpt><trkpt lat="43.7328" lon="6.60548"><ele>983</ele><time>2000-01-01T00:19:32.000Z</time></trkpt><trkpt lat="43.73281" lon="6.60533"><time>2000-01-01T00:19:42.000Z</time></trkpt><trkpt lat="43.7328" lon="6.60518"><ele>979</ele><time>2000-01-01T00:19:52.000Z</time></trkpt><trkpt lat="43.7328" lon="6.60509"><time>2000-01-01T00:20:02.000Z</time></trkpt><trkpt lat="43.7328" lon="6.60499"><time>2000-01-01T00:20:12.000Z</time></trkpt><trkpt lat="43.73279" lon="6.60496"><time>2000-01-01T00:20:22.000Z</time></trkpt><trkpt lat="43.73279" lon="6.60478"><ele>977</ele><time>2000-01-01T00:20:32.000Z</time></trkpt><trkpt lat="43.7328" lon="6.6047"><time>2000-01-01T00:20:42.000Z</time></trkpt><trkpt lat="43.7328" lon="6.60463"><time>2000-01-01T00:20:52.000Z</time></trkpt><trkpt lat="43.73279" lon="6.60449"><ele>975</ele><time>2000-01-01T00:21:02.000Z</time></trkpt><trkpt lat="43.73279" lon="6.60442"><time>2000-01-01T00:21:12.000Z</time></trkpt><trkpt lat="43.73277" lon="6.60426"><time>2000-01-01T00:21:22.000Z</time></trkpt><trkpt lat="43.73275" lon="6.60415"><ele>977</ele><time>2000-01-01T00:21:32.000Z</time></trkpt><trkpt lat="43.73274" lon="6.6041"><time>2000-01-01T00:21:42.000Z</time></trkpt><trkpt lat="43.73274" lon="6.60405"><time>2000-01-01T00:21:52.000Z</time></trkpt><trkpt lat="43.73269" lon="6.60391"><time>2000-01-01T00:22:02.000Z</time></trkpt><trkpt lat="43.73263" lon="6.60373"><ele>977</ele><time>2000-01-01T00:22:12.000Z</time></trkpt><trkpt lat="43.73257" lon="6.60354"><time>2000-01-01T00:22:22.000Z</time></trkpt><trkpt lat="43.73254" lon="6.60344"><ele>977</ele><time>2000-01-01T00:22:32.000Z</time></trkpt><trkpt lat="43.73254" lon="6.60335"><time>2000-01-01T00:22:42.000Z</time></trkpt><trkpt lat="43.73252" lon="6.60318"><time>2000-01-01T00:22:52.000Z</time></trkpt><trkpt lat="43.7325" lon="6.60301"><ele>977</ele><time>2000-01-01T00:23:02.000Z</time></trkpt><trkpt lat="43.73249" lon="6.60292"><time>2000-01-01T00:23:12.000Z</time></trkpt><trkpt lat="43.73246" lon="6.60274"><time>2000-01-01T00:23:22.000Z</time></trkpt><trkpt lat="43.73245" lon="6.60261"><ele>974</ele><time>2000-01-01T00:23:32.000Z</time></trkpt><trkpt lat="43.73243" lon="6.60256"><time>2000-01-01T00:23:42.000Z</time></trkpt><trkpt lat="43.73243" lon="6.60233"><ele>974</ele><time>2000-01-01T00:23:52.000Z</time></trkpt><trkpt lat="43.73242" lon="6.60216"><time>2000-01-01T00:24:02.000Z</time></trkpt><trkpt lat="43.73242" lon="6.60203"><ele>972</ele><time>2000-01-01T00:24:12.000Z</time></trkpt><trkpt lat="43.73242" lon="6.60185"><time>2000-01-01T00:24:22.000Z</time></trkpt><trkpt lat="43.73242" lon="6.60172"><ele>973</ele><time>2000-01-01T00:24:32.000Z</time></trkpt><trkpt lat="43.73241" lon="6.60161"><time>2000-01-01T00:24:42.000Z</time></trkpt><trkpt lat="43.73241" lon="6.60152"><time>2000-01-01T00:24:52.000Z</time></trkpt><trkpt lat="43.73232" lon="6.60129"><ele>973</ele><time>2000-01-01T00:25:02.000Z</time></trkpt><trkpt lat="43.73232" lon="6.60124"><time>2000-01-01T00:25:12.000Z</time></trkpt><trkpt lat="43.7323" lon="6.60112"><time>2000-01-01T00:25:22.000Z</time></trkpt><trkpt lat="43.73229" lon="6.60106"><time>2000-01-01T00:25:32.000Z</time></trkpt><trkpt lat="43.73224" lon="6.60087"><ele>973</ele><time>2000-01-01T00:25:42.000Z</time></trkpt><trkpt lat="43.73216" lon="6.60058"><ele>975</ele><time>2000-01-01T00:25:52.000Z</time></trkpt><trkpt lat="43.73207" lon="6.60033"><ele>972</ele><time>2000-01-01T00:26:02.000Z</time></trkpt><trkpt lat="43.73202" lon="6.60009"><time>2000-01-01T00:26:12.000Z</time></trkpt><trkpt lat="43.73195" lon="6.59976"><ele>970</ele><time>2000-01-01T00:26:22.000Z</time></trkpt><trkpt lat="43.73191" lon="6.59957"><time>2000-01-01T00:26:32.000Z</time></trkpt><trkpt lat="43.73183" lon="6.59935"><ele>969</ele><time>2000-01-01T00:26:42.000Z</time></trkpt><trkpt lat="43.73177" lon="6.59917"><time>2000-01-01T00:26:52.000Z</time></trkpt><trkpt lat="43.73167" lon="6.59886"><ele>967</ele><time>2000-01-01T00:27:02.000Z</time></trkpt><trkpt lat="43.73164" lon="6.59876"><time>2000-01-01T00:27:12.000Z</time></trkpt><trkpt lat="43.73146" lon="6.5984"><ele>965</ele><time>2000-01-01T00:27:22.000Z</time></trkpt><trkpt lat="43.73132" lon="6.59809"><ele>962</ele><time>2000-01-01T00:27:32.000Z</time></trkpt><trkpt lat="43.73125" lon="6.5979"><time>2000-01-01T00:27:42.000Z</time></trkpt><trkpt lat="43.73124" lon="6.59778"><ele>961</ele><time>2000-01-01T00:27:52.000Z</time></trkpt><trkpt lat="43.73121" lon="6.59768"><time>2000-01-01T00:28:02.000Z</time></trkpt><trkpt lat="43.73109" lon="6.5974"><ele>957</ele><time>2000-01-01T00:28:12.000Z</time></trkpt><trkpt lat="43.73099" lon="6.59726"><time>2000-01-01T00:28:22.000Z</time></trkpt><trkpt lat="43.73095" lon="6.59713"><ele>952</ele><time>2000-01-01T00:28:32.000Z</time></trkpt><trkpt lat="43.73094" lon="6.59705"><time>2000-01-01T00:28:42.000Z</time></trkpt><trkpt lat="43.73095" lon="6.59697"><time>2000-01-01T00:28:52.000Z</time></trkpt><trkpt lat="43.731" lon="6.59682"><ele>950</ele><time>2000-01-01T00:29:02.000Z</time></trkpt><trkpt lat="43.73104" lon="6.59658"><time>2000-01-01T00:29:12.000Z</time></trkpt><trkpt lat="43.7311" lon="6.59614"><ele>949</ele><time>2000-01-01T00:29:22.000Z</time></trkpt><trkpt lat="43.73113" lon="6.5958"><ele>949</ele><time>2000-01-01T00:29:32.000Z</time></trkpt><trkpt lat="43.73116" lon="6.59548"><ele>949</ele><time>2000-01-01T00:29:42.000Z</time></trkpt><trkpt lat="43.73116" lon="6.59535"><time>2000-01-01T00:29:52.000Z</time></trkpt><trkpt lat="43.73117" lon="6.59504"><ele>948</ele><time>2000-01-01T00:30:02.000Z</time></trkpt><trkpt lat="43.73116" lon="6.59485"><time>2000-01-01T00:30:12.000Z</time></trkpt><trkpt lat="43.73115" lon="6.59472"><ele>948</ele><time>2000-01-01T00:30:22.000Z</time></trkpt><trkpt lat="43.73114" lon="6.59457"><time>2000-01-01T00:30:32.000Z</time></trkpt><trkpt lat="43.73114" lon="6.59447"><time>2000-01-01T00:30:42.000Z</time></trkpt><trkpt lat="43.73111" lon="6.59437"><ele>945</ele><time>2000-01-01T00:30:52.000Z</time></trkpt><trkpt lat="43.7311" lon="6.5943"><time>2000-01-01T00:31:02.000Z</time></trkpt><trkpt lat="43.73109" lon="6.59414"><time>2000-01-01T00:31:12.000Z</time></trkpt><trkpt lat="43.73108" lon="6.59389"><ele>945</ele><time>2000-01-01T00:31:22.000Z</time></trkpt><trkpt lat="43.73107" lon="6.5938"><time>2000-01-01T00:31:32.000Z</time></trkpt><trkpt lat="43.73104" lon="6.59361"><ele>945</ele><time>2000-01-01T00:31:42.000Z</time></trkpt><trkpt lat="43.73098" lon="6.5934"><time>2000-01-01T00:31:52.000Z</time></trkpt><trkpt lat="43.7309" lon="6.59318"><ele>943</ele><time>2000-01-01T00:32:02.000Z</time></trkpt><trkpt lat="43.73082" lon="6.593"><time>2000-01-01T00:32:12.000Z</time></trkpt><trkpt lat="43.73073" lon="6.59281"><ele>943</ele><time>2000-01-01T00:32:22.000Z</time></trkpt><trkpt lat="43.73067" lon="6.59254"><ele>942</ele><time>2000-01-01T00:32:32.000Z</time></trkpt><trkpt lat="43.73062" lon="6.59226"><ele>942</ele><time>2000-01-01T00:32:42.000Z</time></trkpt><trkpt lat="43.73055" lon="6.59212"><time>2000-01-01T00:32:52.000Z</time></trkpt><trkpt lat="43.73043" lon="6.59172"><ele>942</ele><time>2000-01-01T00:33:02.000Z</time></trkpt><trkpt lat="43.7303" lon="6.59135"><ele>942</ele><time>2000-01-01T00:33:12.000Z</time></trkpt><trkpt lat="43.73014" lon="6.59105"><ele>940</ele><time>2000-01-01T00:33:22.000Z</time></trkpt><trkpt lat="43.72997" lon="6.59068"><ele>939</ele><time>2000-01-01T00:33:32.000Z</time></trkpt><trkpt lat="43.72982" lon="6.59029"><ele>939</ele><time>2000-01-01T00:33:42.000Z</time></trkpt><trkpt lat="43.72955" lon="6.59"><ele>939</ele><time>2000-01-01T00:33:52.000Z</time></trkpt><trkpt lat="43.72923" lon="6.58973"><ele>939</ele><time>2000-01-01T00:34:02.000Z</time></trkpt><trkpt lat="43.7292" lon="6.58958"><time>2000-01-01T00:34:12.000Z</time></trkpt><trkpt lat="43.72909" lon="6.58915"><ele>934</ele><time>2000-01-01T00:34:22.000Z</time></trkpt><trkpt lat="43.72898" lon="6.58882"><ele>935</ele><time>2000-01-01T00:34:32.000Z</time></trkpt><trkpt lat="43.72891" lon="6.58849"><ele>937</ele><time>2000-01-01T00:34:42.000Z</time></trkpt><trkpt lat="43.72887" lon="6.58814"><ele>943</ele><time>2000-01-01T00:34:52.000Z</time></trkpt><trkpt lat="43.72889" lon="6.58795"><time>2000-01-01T00:35:02.000Z</time></trkpt><trkpt lat="43.72897" lon="6.58764"><ele>955</ele><time>2000-01-01T00:35:12.000Z</time></trkpt><trkpt lat="43.72897" lon="6.58742"><time>2000-01-01T00:35:22.000Z</time></trkpt><trkpt lat="43.72892" lon="6.5869"><ele>962</ele><time>2000-01-01T00:35:32.000Z</time></trkpt><trkpt lat="43.72889" lon="6.58659"><ele>965</ele><time>2000-01-01T00:35:42.000Z</time></trkpt><trkpt lat="43.7289" lon="6.58634"><time>2000-01-01T00:35:52.000Z</time></trkpt><trkpt lat="43.72893" lon="6.58598"><ele>965</ele><time>2000-01-01T00:36:02.000Z</time></trkpt><trkpt lat="43.7289" lon="6.58566"><ele>964</ele><time>2000-01-01T00:36:12.000Z</time></trkpt><trkpt lat="43.72888" lon="6.58525"><ele>960</ele><time>2000-01-01T00:36:22.000Z</time></trkpt><trkpt lat="43.72884" lon="6.58459"><ele>960</ele><time>2000-01-01T00:36:32.000Z</time></trkpt><trkpt lat="43.72882" lon="6.58408"><ele>960</ele><time>2000-01-01T00:36:42.000Z</time></trkpt><trkpt lat="43.72879" lon="6.58361"><ele>961</ele><time>2000-01-01T00:36:52.000Z</time></trkpt><trkpt lat="43.72879" lon="6.58344"><time>2000-01-01T00:37:02.000Z</time></trkpt><trkpt lat="43.72883" lon="6.58311"><ele>963</ele><time>2000-01-01T00:37:12.000Z</time></trkpt><trkpt lat="43.72883" lon="6.58262"><ele>963</ele><time>2000-01-01T00:37:22.000Z</time></trkpt><trkpt lat="43.72879" lon="6.58212"><ele>962</ele><time>2000-01-01T00:37:32.000Z</time></trkpt><trkpt lat="43.72878" lon="6.5818"><ele>961</ele><time>2000-01-01T00:37:42.000Z</time></trkpt><trkpt lat="43.72878" lon="6.58149"><ele>961</ele><time>2000-01-01T00:37:52.000Z</time></trkpt><trkpt lat="43.72882" lon="6.58133"><time>2000-01-01T00:38:02.000Z</time></trkpt><trkpt lat="43.72891" lon="6.58119"><ele>961</ele><time>2000-01-01T00:38:12.000Z</time></trkpt><trkpt lat="43.7289" lon="6.58065"><ele>961</ele><time>2000-01-01T00:38:22.000Z</time></trkpt><trkpt lat="43.72888" lon="6.58005"><ele>960</ele><time>2000-01-01T00:38:32.000Z</time></trkpt><trkpt lat="43.7289" lon="6.57991"><time>2000-01-01T00:38:42.000Z</time></trkpt><trkpt lat="43.72895" lon="6.5797"><ele>957</ele><time>2000-01-01T00:38:52.000Z</time></trkpt><trkpt lat="43.72908" lon="6.57938"><ele>955</ele><time>2000-01-01T00:39:02.000Z</time></trkpt><trkpt lat="43.72921" lon="6.57915"><ele>954</ele><time>2000-01-01T00:39:12.000Z</time></trkpt><trkpt lat="43.72935" lon="6.57893"><ele>954</ele><time>2000-01-01T00:39:22.000Z</time></trkpt><trkpt lat="43.72947" lon="6.57875"><time>2000-01-01T00:39:32.000Z</time></trkpt><trkpt lat="43.72952" lon="6.57865"><ele>955</ele><time>2000-01-01T00:39:42.000Z</time></trkpt><trkpt lat="43.72952" lon="6.57856"><time>2000-01-01T00:39:52.000Z</time></trkpt><trkpt lat="43.72948" lon="6.57849"><time>2000-01-01T00:40:02.000Z</time></trkpt><trkpt lat="43.72946" lon="6.57843"><time>2000-01-01T00:40:12.000Z</time></trkpt><trkpt lat="43.72941" lon="6.57836"><ele>960</ele><time>2000-01-01T00:40:22.000Z</time></trkpt><trkpt lat="43.72935" lon="6.5783"><time>2000-01-01T00:40:32.000Z</time></trkpt><trkpt lat="43.72931" lon="6.57824"><time>2000-01-01T00:40:42.000Z</time></trkpt><trkpt lat="43.72928" lon="6.57819"><time>2000-01-01T00:40:52.000Z</time></trkpt><trkpt lat="43.72923" lon="6.57811"><ele>966</ele><time>2000-01-01T00:41:02.000Z</time></trkpt><trkpt lat="43.72917" lon="6.57805"><time>2000-01-01T00:41:12.000Z</time></trkpt><trkpt lat="43.72914" lon="6.57798"><time>2000-01-01T00:41:22.000Z</time></trkpt><trkpt lat="43.72913" lon="6.57793"><time>2000-01-01T00:41:32.000Z</time></trkpt><trkpt lat="43.72912" lon="6.57784"><ele>975</ele><time>2000-01-01T00:41:42.000Z</time></trkpt><trkpt lat="43.72911" lon="6.5777"><time>2000-01-01T00:41:52.000Z</time></trkpt><trkpt lat="43.72909" lon="6.57752"><ele>980</ele><time>2000-01-01T00:42:02.000Z</time></trkpt><trkpt lat="43.72908" lon="6.57738"><time>2000-01-01T00:42:12.000Z</time></trkpt><trkpt lat="43.72904" lon="6.57713"><ele>985</ele><time>2000-01-01T00:42:22.000Z</time></trkpt><trkpt lat="43.72897" lon="6.57694"><time>2000-01-01T00:42:32.000Z</time></trkpt><trkpt lat="43.72891" lon="6.57677"><ele>991</ele><time>2000-01-01T00:42:42.000Z</time></trkpt><trkpt lat="43.72892" lon="6.57667"><time>2000-01-01T00:42:52.000Z</time></trkpt><trkpt lat="43.72895" lon="6.57657"><time>2000-01-01T00:43:02.000Z</time></trkpt><trkpt lat="43.7292" lon="6.57689"><ele>995</ele><time>2000-01-01T00:43:12.000Z</time></trkpt><trkpt lat="43.72928" lon="6.57693"><time>2000-01-01T00:43:22.000Z</time></trkpt><trkpt lat="43.72938" lon="6.57692"><time>2000-01-01T00:43:32.000Z</time></trkpt><trkpt lat="43.72947" lon="6.5768"><ele>1003</ele><time>2000-01-01T00:43:42.000Z</time></trkpt><trkpt lat="43.72951" lon="6.57672"><time>2000-01-01T00:43:52.000Z</time></trkpt><trkpt lat="43.72957" lon="6.57641"><ele>1010</ele><time>2000-01-01T00:44:02.000Z</time></trkpt><trkpt lat="43.72952" lon="6.57635"><time>2000-01-01T00:44:12.000Z</time></trkpt><trkpt lat="43.72952" lon="6.57624"><time>2000-01-01T00:44:22.000Z</time></trkpt><trkpt lat="43.72955" lon="6.57617"><ele>1017</ele><time>2000-01-01T00:44:32.000Z</time></trkpt><trkpt lat="43.72954" lon="6.57611"><time>2000-01-01T00:44:42.000Z</time></trkpt><trkpt lat="43.72947" lon="6.57603"><time>2000-01-01T00:44:52.000Z</time></trkpt><trkpt lat="43.72942" lon="6.57596"><ele>1023</ele><time>2000-01-01T00:45:02.000Z</time></trkpt><trkpt lat="43.72942" lon="6.57589"><time>2000-01-01T00:45:12.000Z</time></trkpt><trkpt lat="43.72947" lon="6.57578"><time>2000-01-01T00:45:22.000Z</time></trkpt><trkpt lat="43.72947" lon="6.57572"><time>2000-01-01T00:45:32.000Z</time></trkpt><trkpt lat="43.72945" lon="6.57565"><ele>1028</ele><time>2000-01-01T00:45:42.000Z</time></trkpt><trkpt lat="43.72945" lon="6.57553"><time>2000-01-01T00:45:52.000Z</time></trkpt><trkpt lat="43.72942" lon="6.57542"><time>2000-01-01T00:46:02.000Z</time></trkpt><trkpt lat="43.72944" lon="6.57533"><ele>1031</ele><time>2000-01-01T00:46:12.000Z</time></trkpt><trkpt lat="43.72943" lon="6.57526"><time>2000-01-01T00:46:22.000Z</time></trkpt><trkpt lat="43.72946" lon="6.57502"><ele>1034</ele><time>2000-01-01T00:46:32.000Z</time></trkpt><trkpt lat="43.72947" lon="6.57491"><time>2000-01-01T00:46:42.000Z</time></trkpt><trkpt lat="43.72946" lon="6.57484"><time>2000-01-01T00:46:52.000Z</time></trkpt><trkpt lat="43.72941" lon="6.57464"><ele>1038</ele><time>2000-01-01T00:47:02.000Z</time></trkpt><trkpt lat="43.72941" lon="6.57457"><time>2000-01-01T00:47:12.000Z</time></trkpt><trkpt lat="43.72945" lon="6.57457"><time>2000-01-01T00:47:22.000Z</time></trkpt><trkpt lat="43.7295" lon="6.57471"><ele>1038</ele><time>2000-01-01T00:47:32.000Z</time></trkpt><trkpt lat="43.72955" lon="6.57469"><time>2000-01-01T00:47:42.000Z</time></trkpt><trkpt lat="43.72953" lon="6.57453"><time>2000-01-01T00:47:52.000Z</time></trkpt><trkpt lat="43.72955" lon="6.57447"><ele>1042</ele><time>2000-01-01T00:48:02.000Z</time></trkpt><trkpt lat="43.72966" lon="6.57483"><ele>1042</ele><time>2000-01-01T00:48:12.000Z</time></trkpt><trkpt lat="43.72971" lon="6.57495"><time>2000-01-01T00:48:22.000Z</time></trkpt><trkpt lat="43.72978" lon="6.575"><time>2000-01-01T00:48:32.000Z</time></trkpt><trkpt lat="43.72982" lon="6.57496"><ele>1043</ele><time>2000-01-01T00:48:42.000Z</time></trkpt><trkpt lat="43.72969" lon="6.57449"><ele>1057</ele><time>2000-01-01T00:48:52.000Z</time></trkpt><trkpt lat="43.72963" lon="6.57425"><time>2000-01-01T00:49:02.000Z</time></trkpt><trkpt lat="43.72961" lon="6.57375"><ele>1056</ele><time>2000-01-01T00:49:12.000Z</time></trkpt><trkpt lat="43.72955" lon="6.57328"><ele>1065</ele><time>2000-01-01T00:49:22.000Z</time></trkpt><trkpt lat="43.72954" lon="6.57312"><time>2000-01-01T00:49:32.000Z</time></trkpt><trkpt lat="43.72966" lon="6.57244"><ele>1068</ele><time>2000-01-01T00:49:42.000Z</time></trkpt><trkpt lat="43.72973" lon="6.57216"><ele>1068</ele><time>2000-01-01T00:49:52.000Z</time></trkpt><trkpt lat="43.72981" lon="6.572"><time>2000-01-01T00:50:02.000Z</time></trkpt><trkpt lat="43.72985" lon="6.57193"><ele>1069</ele><time>2000-01-01T00:50:12.000Z</time></trkpt><trkpt lat="43.72989" lon="6.572"><time>2000-01-01T00:50:22.000Z</time></trkpt><trkpt lat="43.72988" lon="6.5723"><ele>1072</ele><time>2000-01-01T00:50:32.000Z</time></trkpt><trkpt lat="43.72989" lon="6.57254"><time>2000-01-01T00:50:42.000Z</time></trkpt><trkpt lat="43.72989" lon="6.57265"><ele>1074</ele><time>2000-01-01T00:50:52.000Z</time></trkpt><trkpt lat="43.72989" lon="6.57283"><time>2000-01-01T00:51:02.000Z</time></trkpt><trkpt lat="43.72992" lon="6.57301"><ele>1077</ele><time>2000-01-01T00:51:12.000Z</time></trkpt><trkpt lat="43.73002" lon="6.57346"><ele>1081</ele><time>2000-01-01T00:51:22.000Z</time></trkpt><trkpt lat="43.73009" lon="6.57321"><time>2000-01-01T00:51:32.000Z</time></trkpt><trkpt lat="43.73012" lon="6.57296"><ele>1087</ele><time>2000-01-01T00:51:42.000Z</time></trkpt><trkpt lat="43.73012" lon="6.57269"><time>2000-01-01T00:51:52.000Z</time></trkpt><trkpt lat="43.73012" lon="6.57247"><ele>1085</ele><time>2000-01-01T00:52:02.000Z</time></trkpt><trkpt lat="43.73009" lon="6.57222"><time>2000-01-01T00:52:12.000Z</time></trkpt><trkpt lat="43.73012" lon="6.57199"><ele>1084</ele><time>2000-01-01T00:52:22.000Z</time></trkpt><trkpt lat="43.73022" lon="6.5716"><ele>1082</ele><time>2000-01-01T00:52:32.000Z</time></trkpt><trkpt lat="43.73028" lon="6.57131"><ele>1082</ele><time>2000-01-01T00:52:42.000Z</time></trkpt><trkpt lat="43.73032" lon="6.57115"><time>2000-01-01T00:52:52.000Z</time></trkpt><trkpt lat="43.73047" lon="6.5709"><ele>1078</ele><time>2000-01-01T00:53:02.000Z</time></trkpt><trkpt lat="43.73068" lon="6.5705"><ele>1074</ele><time>2000-01-01T00:53:12.000Z</time></trkpt><trkpt lat="43.73091" lon="6.57007"><ele>1074</ele><time>2000-01-01T00:53:22.000Z</time></trkpt><trkpt lat="43.73117" lon="6.56964"><ele>1077</ele><time>2000-01-01T00:53:32.000Z</time></trkpt><trkpt lat="43.73137" lon="6.56924"><ele>1075</ele><time>2000-01-01T00:53:42.000Z</time></trkpt><trkpt lat="43.73149" lon="6.569"><ele>1075</ele><time>2000-01-01T00:53:52.000Z</time></trkpt><trkpt lat="43.73162" lon="6.56862"><ele>1075</ele><time>2000-01-01T00:54:02.000Z</time></trkpt><trkpt lat="43.73169" lon="6.56854"><time>2000-01-01T00:54:12.000Z</time></trkpt><trkpt lat="43.73181" lon="6.56844"><ele>1075</ele><time>2000-01-01T00:54:22.000Z</time></trkpt><trkpt lat="43.73197" lon="6.56836"><time>2000-01-01T00:54:32.000Z</time></trkpt><trkpt lat="43.73213" lon="6.56832"><ele>1073</ele><time>2000-01-01T00:54:42.000Z</time></trkpt><trkpt lat="43.73219" lon="6.56831"><time>2000-01-01T00:54:52.000Z</time></trkpt><trkpt lat="43.73228" lon="6.56827"><time>2000-01-01T00:55:02.000Z</time></trkpt><trkpt lat="43.73246" lon="6.56829"><ele>1073</ele><time>2000-01-01T00:55:12.000Z</time></trkpt><trkpt lat="43.73287" lon="6.56821"><ele>1073</ele><time>2000-01-01T00:55:22.000Z</time></trkpt><trkpt lat="43.733" lon="6.56821"><time>2000-01-01T00:55:32.000Z</time></trkpt><trkpt lat="43.73316" lon="6.5682"><ele>1071</ele><time>2000-01-01T00:55:42.000Z</time></trkpt><trkpt lat="43.73323" lon="6.56819"><time>2000-01-01T00:55:52.000Z</time></trkpt><trkpt lat="43.7334" lon="6.56824"><ele>1070</ele><time>2000-01-01T00:56:02.000Z</time></trkpt><trkpt lat="43.73349" lon="6.56825"><time>2000-01-01T00:56:12.000Z</time></trkpt><trkpt lat="43.73355" lon="6.56829"><time>2000-01-01T00:56:22.000Z</time></trkpt><trkpt lat="43.73366" lon="6.56838"><ele>1070</ele><time>2000-01-01T00:56:32.000Z</time></trkpt><trkpt lat="43.73378" lon="6.56842"><time>2000-01-01T00:56:42.000Z</time></trkpt><trkpt lat="43.73397" lon="6.56838"><ele>1067</ele><time>2000-01-01T00:56:52.000Z</time></trkpt><trkpt lat="43.73409" lon="6.56831"><time>2000-01-01T00:57:02.000Z</time></trkpt><trkpt lat="43.73427" lon="6.56819"><ele>1064</ele><time>2000-01-01T00:57:12.000Z</time></trkpt><trkpt lat="43.73438" lon="6.5681"><time>2000-01-01T00:57:22.000Z</time></trkpt><trkpt lat="43.73446" lon="6.56803"><ele>1064</ele><time>2000-01-01T00:57:32.000Z</time></trkpt><trkpt lat="43.7345" lon="6.56808"><time>2000-01-01T00:57:42.000Z</time></trkpt><trkpt lat="43.73452" lon="6.5682"><time>2000-01-01T00:57:52.000Z</time></trkpt><trkpt lat="43.7345" lon="6.56836"><ele>1063</ele><time>2000-01-01T00:58:02.000Z</time></trkpt><trkpt lat="43.73447" lon="6.56848"><time>2000-01-01T00:58:12.000Z</time></trkpt><trkpt lat="43.73442" lon="6.56855"><time>2000-01-01T00:58:22.000Z</time></trkpt><trkpt lat="43.73439" lon="6.56865"><ele>1063</ele><time>2000-01-01T00:58:32.000Z</time></trkpt><trkpt lat="43.73437" lon="6.56889"><time>2000-01-01T00:58:42.000Z</time></trkpt><trkpt lat="43.73435" lon="6.56908"><ele>1062</ele><time>2000-01-01T00:58:52.000Z</time></trkpt><trkpt lat="43.73432" lon="6.56929"><time>2000-01-01T00:59:02.000Z</time></trkpt><trkpt lat="43.7343" lon="6.56951"><ele>1062</ele><time>2000-01-01T00:59:12.000Z</time></trkpt><trkpt lat="43.73429" lon="6.56969"><time>2000-01-01T00:59:22.000Z</time></trkpt><trkpt lat="43.73429" lon="6.56984"><ele>1062</ele><time>2000-01-01T00:59:32.000Z</time></trkpt><trkpt lat="43.73425" lon="6.57017"><ele>1064</ele><time>2000-01-01T00:59:42.000Z</time></trkpt><trkpt lat="43.73421" lon="6.57052"><ele>1068</ele><time>2000-01-01T00:59:52.000Z</time></trkpt><trkpt lat="43.73418" lon="6.57082"><ele>1069</ele><time>2000-01-01T01:00:02.000Z</time></trkpt><trkpt lat="43.73418" lon="6.57098"><time>2000-01-01T01:00:12.000Z</time></trkpt><trkpt lat="43.73417" lon="6.5713"><ele>1069</ele><time>2000-01-01T01:00:22.000Z</time></trkpt><trkpt lat="43.73418" lon="6.57149"><time>2000-01-01T01:00:32.000Z</time></trkpt><trkpt lat="43.73421" lon="6.57189"><ele>1069</ele><time>2000-01-01T01:00:42.000Z</time></trkpt><trkpt lat="43.73423" lon="6.57208"><time>2000-01-01T01:00:52.000Z</time></trkpt><trkpt lat="43.73423" lon="6.57224"><ele>1069</ele><time>2000-01-01T01:01:02.000Z</time></trkpt><trkpt lat="43.73424" lon="6.57247"><time>2000-01-01T01:01:12.000Z</time></trkpt><trkpt lat="43.73426" lon="6.57262"><ele>1067</ele><time>2000-01-01T01:01:22.000Z</time></trkpt><trkpt lat="43.73428" lon="6.57288"><time>2000-01-01T01:01:32.000Z</time></trkpt><trkpt lat="43.73431" lon="6.57302"><ele>1069</ele><time>2000-01-01T01:01:42.000Z</time></trkpt><trkpt lat="43.73434" lon="6.57311"><time>2000-01-01T01:01:52.000Z</time></trkpt><trkpt lat="43.73445" lon="6.57334"><ele>1069</ele><time>2000-01-01T01:02:02.000Z</time></trkpt><trkpt lat="43.73448" lon="6.57345"><time>2000-01-01T01:02:12.000Z</time></trkpt><trkpt lat="43.7345" lon="6.57353"><time>2000-01-01T01:02:22.000Z</time></trkpt><trkpt lat="43.7345" lon="6.57379"><ele>1070</ele><time>2000-01-01T01:02:32.000Z</time></trkpt><trkpt lat="43.73451" lon="6.57388"><time>2000-01-01T01:02:42.000Z</time></trkpt><trkpt lat="43.73463" lon="6.57432"><ele>1070</ele><time>2000-01-01T01:02:52.000Z</time></trkpt><trkpt lat="43.7347" lon="6.57459"><ele>1067</ele><time>2000-01-01T01:03:02.000Z</time></trkpt><trkpt lat="43.73477" lon="6.575"><ele>1065</ele><time>2000-01-01T01:03:12.000Z</time></trkpt><trkpt lat="43.73477" lon="6.57518"><time>2000-01-01T01:03:22.000Z</time></trkpt><trkpt lat="43.73479" lon="6.57542"><ele>1065</ele><time>2000-01-01T01:03:32.000Z</time></trkpt><trkpt lat="43.7348" lon="6.57569"><time>2000-01-01T01:03:42.000Z</time></trkpt><trkpt lat="43.73482" lon="6.57591"><ele>1066</ele><time>2000-01-01T01:03:52.000Z</time></trkpt><trkpt lat="43.73482" lon="6.57612"><time>2000-01-01T01:04:02.000Z</time></trkpt><trkpt lat="43.73481" lon="6.57625"><ele>1067</ele><time>2000-01-01T01:04:12.000Z</time></trkpt><trkpt lat="43.73483" lon="6.57657"><ele>1067</ele><time>2000-01-01T01:04:22.000Z</time></trkpt><trkpt lat="43.73483" lon="6.57671"><time>2000-01-01T01:04:32.000Z</time></trkpt><trkpt lat="43.73485" lon="6.57682"><time>2000-01-01T01:04:42.000Z</time></trkpt><trkpt lat="43.73492" lon="6.57705"><ele>1069</ele><time>2000-01-01T01:04:52.000Z</time></trkpt><trkpt lat="43.73494" lon="6.57712"><time>2000-01-01T01:05:02.000Z</time></trkpt><trkpt lat="43.73505" lon="6.57747"><ele>1068</ele><time>2000-01-01T01:05:12.000Z</time></trkpt><trkpt lat="43.73515" lon="6.57776"><ele>1068</ele><time>2000-01-01T01:05:22.000Z</time></trkpt><trkpt lat="43.73521" lon="6.57799"><time>2000-01-01T01:05:32.000Z</time></trkpt><trkpt lat="43.73525" lon="6.57816"><ele>1067</ele><time>2000-01-01T01:05:42.000Z</time></trkpt><trkpt lat="43.73529" lon="6.57836"><time>2000-01-01T01:05:52.000Z</time></trkpt><trkpt lat="43.73532" lon="6.57853"><ele>1067</ele><time>2000-01-01T01:06:02.000Z</time></trkpt><trkpt lat="43.73534" lon="6.57874"><time>2000-01-01T01:06:12.000Z</time></trkpt><trkpt lat="43.73534" lon="6.57914"><ele>1063</ele><time>2000-01-01T01:06:22.000Z</time></trkpt><trkpt lat="43.73532" lon="6.57967"><ele>1063</ele><time>2000-01-01T01:06:32.000Z</time></trkpt><trkpt lat="43.73531" lon="6.58015"><ele>1063</ele><time>2000-01-01T01:06:42.000Z</time></trkpt><trkpt lat="43.73532" lon="6.5802"><time>2000-01-01T01:06:52.000Z</time></trkpt><trkpt lat="43.73531" lon="6.58027"><time>2000-01-01T01:07:02.000Z</time></trkpt><trkpt lat="43.73528" lon="6.58053"><ele>1062</ele><time>2000-01-01T01:07:12.000Z</time></trkpt><trkpt lat="43.73527" lon="6.58071"><time>2000-01-01T01:07:22.000Z</time></trkpt><trkpt lat="43.73526" lon="6.58096"><ele>1062</ele><time>2000-01-01T01:07:32.000Z</time></trkpt><trkpt lat="43.73525" lon="6.58113"><time>2000-01-01T01:07:42.000Z</time></trkpt><trkpt lat="43.73523" lon="6.58135"><ele>1060</ele><time>2000-01-01T01:07:52.000Z</time></trkpt><trkpt lat="43.7352" lon="6.58151"><time>2000-01-01T01:08:02.000Z</time></trkpt><trkpt lat="43.73519" lon="6.58183"><ele>1058</ele><time>2000-01-01T01:08:12.000Z</time></trkpt><trkpt lat="43.73517" lon="6.58213"><ele>1057</ele><time>2000-01-01T01:08:22.000Z</time></trkpt><trkpt lat="43.73517" lon="6.58243"><ele>1057</ele><time>2000-01-01T01:08:32.000Z</time></trkpt><trkpt lat="43.73518" lon="6.58261"><time>2000-01-01T01:08:42.000Z</time></trkpt><trkpt lat="43.7352" lon="6.58276"><ele>1056</ele><time>2000-01-01T01:08:52.000Z</time></trkpt><trkpt lat="43.73521" lon="6.58285"><time>2000-01-01T01:09:02.000Z</time></trkpt><trkpt lat="43.73521" lon="6.58313"><ele>1055</ele><time>2000-01-01T01:09:12.000Z</time></trkpt><trkpt lat="43.73522" lon="6.58352"><ele>1054</ele><time>2000-01-01T01:09:22.000Z</time></trkpt><trkpt lat="43.73524" lon="6.58393"><ele>1053</ele><time>2000-01-01T01:09:32.000Z</time></trkpt><trkpt lat="43.73523" lon="6.58411"><time>2000-01-01T01:09:42.000Z</time></trkpt><trkpt lat="43.7353" lon="6.58441"><ele>1051</ele><time>2000-01-01T01:09:52.000Z</time></trkpt><trkpt lat="43.7354" lon="6.58489"><ele>1050</ele><time>2000-01-01T01:10:02.000Z</time></trkpt><trkpt lat="43.73548" lon="6.58528"><ele>1051</ele><time>2000-01-01T01:10:12.000Z</time></trkpt><trkpt lat="43.73556" lon="6.58563"><ele>1051</ele><time>2000-01-01T01:10:22.000Z</time></trkpt><trkpt lat="43.73564" lon="6.58594"><ele>1051</ele><time>2000-01-01T01:10:32.000Z</time></trkpt><trkpt lat="43.7357" lon="6.58621"><ele>1052</ele><time>2000-01-01T01:10:42.000Z</time></trkpt><trkpt lat="43.73572" lon="6.58629"><time>2000-01-01T01:10:52.000Z</time></trkpt><trkpt lat="43.73573" lon="6.58646"><time>2000-01-01T01:11:02.000Z</time></trkpt><trkpt lat="43.73575" lon="6.5867"><ele>1051</ele><time>2000-01-01T01:11:12.000Z</time></trkpt><trkpt lat="43.73576" lon="6.58693"><time>2000-01-01T01:11:22.000Z</time></trkpt><trkpt lat="43.73577" lon="6.58704"><ele>1051</ele><time>2000-01-01T01:11:32.000Z</time></trkpt><trkpt lat="43.73581" lon="6.58727"><time>2000-01-01T01:11:42.000Z</time></trkpt><trkpt lat="43.73583" lon="6.58736"><ele>1051</ele><time>2000-01-01T01:11:52.000Z</time></trkpt><trkpt lat="43.736" lon="6.58775"><ele>1051</ele><time>2000-01-01T01:12:02.000Z</time></trkpt><trkpt lat="43.73602" lon="6.58785"><time>2000-01-01T01:12:12.000Z</time></trkpt><trkpt lat="43.73607" lon="6.58809"><ele>1052</ele><time>2000-01-01T01:12:22.000Z</time></trkpt><trkpt lat="43.7361" lon="6.58822"><time>2000-01-01T01:12:32.000Z</time></trkpt><trkpt lat="43.73615" lon="6.58836"><ele>1051</ele><time>2000-01-01T01:12:42.000Z</time></trkpt><trkpt lat="43.7363" lon="6.58856"><ele>1051</ele><time>2000-01-01T01:12:52.000Z</time></trkpt><trkpt lat="43.73645" lon="6.58876"><ele>1058</ele><time>2000-01-01T01:13:02.000Z</time></trkpt><trkpt lat="43.73657" lon="6.58892"><time>2000-01-01T01:13:12.000Z</time></trkpt><trkpt lat="43.73673" lon="6.58909"><ele>1055</ele><time>2000-01-01T01:13:22.000Z</time></trkpt><trkpt lat="43.73682" lon="6.58919"><time>2000-01-01T01:13:32.000Z</time></trkpt><trkpt lat="43.73685" lon="6.58925"><time>2000-01-01T01:13:42.000Z</time></trkpt><trkpt lat="43.73687" lon="6.58934"><ele>1053</ele><time>2000-01-01T01:13:52.000Z</time></trkpt><trkpt lat="43.73693" lon="6.58967"><ele>1046</ele><time>2000-01-01T01:14:02.000Z</time></trkpt><trkpt lat="43.73696" lon="6.58983"><time>2000-01-01T01:14:12.000Z</time></trkpt><trkpt lat="43.73702" lon="6.59013"><ele>1045</ele><time>2000-01-01T01:14:22.000Z</time></trkpt><trkpt lat="43.73703" lon="6.59023"><time>2000-01-01T01:14:32.000Z</time></trkpt><trkpt lat="43.73703" lon="6.59061"><ele>1044</ele><time>2000-01-01T01:14:42.000Z</time></trkpt><trkpt lat="43.73705" lon="6.59091"><ele>1042</ele><time>2000-01-01T01:14:52.000Z</time></trkpt><trkpt lat="43.73706" lon="6.59126"><ele>1042</ele><time>2000-01-01T01:15:02.000Z</time></trkpt><trkpt lat="43.73707" lon="6.59164"><ele>1043</ele><time>2000-01-01T01:15:12.000Z</time></trkpt><trkpt lat="43.73708" lon="6.59188"><time>2000-01-01T01:15:22.000Z</time></trkpt><trkpt lat="43.73707" lon="6.59208"><ele>1045</ele><time>2000-01-01T01:15:32.000Z</time></trkpt><trkpt lat="43.73704" lon="6.59231"><time>2000-01-01T01:15:42.000Z</time></trkpt><trkpt lat="43.73704" lon="6.59241"><ele>1047</ele><time>2000-01-01T01:15:52.000Z</time></trkpt><trkpt lat="43.73703" lon="6.5927"><ele>1047</ele><time>2000-01-01T01:16:02.000Z</time></trkpt><trkpt lat="43.73704" lon="6.59294"><time>2000-01-01T01:16:12.000Z</time></trkpt><trkpt lat="43.73705" lon="6.59307"><ele>1047</ele><time>2000-01-01T01:16:22.000Z</time></trkpt><trkpt lat="43.73707" lon="6.59324"><time>2000-01-01T01:16:32.000Z</time></trkpt><trkpt lat="43.73708" lon="6.59343"><ele>1047</ele><time>2000-01-01T01:16:42.000Z</time></trkpt><trkpt lat="43.73706" lon="6.59358"><time>2000-01-01T01:16:52.000Z</time></trkpt><trkpt lat="43.73706" lon="6.59388"><ele>1048</ele><time>2000-01-01T01:17:02.000Z</time></trkpt><trkpt lat="43.73704" lon="6.59414"><time>2000-01-01T01:17:12.000Z</time></trkpt><trkpt lat="43.73704" lon="6.59422"><ele>1047</ele><time>2000-01-01T01:17:22.000Z</time></trkpt><trkpt lat="43.73701" lon="6.59442"><time>2000-01-01T01:17:32.000Z</time></trkpt><trkpt lat="43.73693" lon="6.59477"><ele>1046</ele><time>2000-01-01T01:17:42.000Z</time></trkpt><trkpt lat="43.73685" lon="6.5951"><ele>1041</ele><time>2000-01-01T01:17:52.000Z</time></trkpt><trkpt lat="43.7368" lon="6.59528"><time>2000-01-01T01:18:02.000Z</time></trkpt><trkpt lat="43.73676" lon="6.59543"><ele>1040</ele><time>2000-01-01T01:18:12.000Z</time></trkpt><trkpt lat="43.73674" lon="6.59556"><time>2000-01-01T01:18:22.000Z</time></trkpt><trkpt lat="43.73675" lon="6.59574"><ele>1041</ele><time>2000-01-01T01:18:32.000Z</time></trkpt><trkpt lat="43.73675" lon="6.59587"><time>2000-01-01T01:18:42.000Z</time></trkpt><trkpt lat="43.73672" lon="6.59609"><ele>1043</ele><time>2000-01-01T01:18:52.000Z</time></trkpt><trkpt lat="43.73669" lon="6.59626"><time>2000-01-01T01:19:02.000Z</time></trkpt><trkpt lat="43.73668" lon="6.59652"><ele>1043</ele><time>2000-01-01T01:19:12.000Z</time></trkpt><trkpt lat="43.73665" lon="6.59672"><time>2000-01-01T01:19:22.000Z</time></trkpt><trkpt lat="43.73663" lon="6.5969"><ele>1040</ele><time>2000-01-01T01:19:32.000Z</time></trkpt><trkpt lat="43.73662" lon="6.5971"><time>2000-01-01T01:19:42.000Z</time></trkpt><trkpt lat="43.73659" lon="6.59729"><ele>1029</ele><time>2000-01-01T01:19:52.000Z</time></trkpt><trkpt lat="43.73653" lon="6.59757"><ele>1029</ele><time>2000-01-01T01:20:02.000Z</time></trkpt><trkpt lat="43.7365" lon="6.59773"><time>2000-01-01T01:20:12.000Z</time></trkpt><trkpt lat="43.73649" lon="6.59785"><ele>1031</ele><time>2000-01-01T01:20:22.000Z</time></trkpt><trkpt lat="43.73652" lon="6.59795"><time>2000-01-01T01:20:32.000Z</time></trkpt><trkpt lat="43.73659" lon="6.59805"><time>2000-01-01T01:20:42.000Z</time></trkpt><trkpt lat="43.73678" lon="6.59841"><ele>1036</ele><time>2000-01-01T01:20:52.000Z</time></trkpt><trkpt lat="43.73692" lon="6.5987"><ele>1037</ele><time>2000-01-01T01:21:02.000Z</time></trkpt><trkpt lat="43.737" lon="6.5989"><time>2000-01-01T01:21:12.000Z</time></trkpt><trkpt lat="43.73703" lon="6.59907"><ele>1036</ele><time>2000-01-01T01:21:22.000Z</time></trkpt><trkpt lat="43.73703" lon="6.59944"><ele>1036</ele><time>2000-01-01T01:21:32.000Z</time></trkpt><trkpt lat="43.73702" lon="6.59955"><time>2000-01-01T01:21:42.000Z</time></trkpt><trkpt lat="43.73701" lon="6.59976"><ele>1036</ele><time>2000-01-01T01:21:52.000Z</time></trkpt><trkpt lat="43.73696" lon="6.60013"><ele>1037</ele><time>2000-01-01T01:22:02.000Z</time></trkpt><trkpt lat="43.73692" lon="6.60049"><ele>1035</ele><time>2000-01-01T01:22:12.000Z</time></trkpt><trkpt lat="43.73688" lon="6.60074"><time>2000-01-01T01:22:22.000Z</time></trkpt><trkpt lat="43.73686" lon="6.60095"><ele>1034</ele><time>2000-01-01T01:22:32.000Z</time></trkpt><trkpt lat="43.7368" lon="6.60124"><ele>1034</ele><time>2000-01-01T01:22:42.000Z</time></trkpt><trkpt lat="43.73674" lon="6.60152"><ele>1031</ele><time>2000-01-01T01:22:52.000Z</time></trkpt><trkpt lat="43.73671" lon="6.60169"><time>2000-01-01T01:23:02.000Z</time></trkpt><trkpt lat="43.73671" lon="6.60185"><ele>1032</ele><time>2000-01-01T01:23:12.000Z</time></trkpt><trkpt lat="43.73671" lon="6.60205"><time>2000-01-01T01:23:22.000Z</time></trkpt><trkpt lat="43.73668" lon="6.60226"><ele>1030</ele><time>2000-01-01T01:23:32.000Z</time></trkpt><trkpt lat="43.73664" lon="6.60248"><time>2000-01-01T01:23:42.000Z</time></trkpt><trkpt lat="43.73658" lon="6.60316"><ele>1030</ele><time>2000-01-01T01:23:52.000Z</time></trkpt><trkpt lat="43.73657" lon="6.60324"><time>2000-01-01T01:24:02.000Z</time></trkpt><trkpt lat="43.73654" lon="6.60342"><time>2000-01-01T01:24:12.000Z</time></trkpt><trkpt lat="43.73651" lon="6.60363"><ele>1030</ele><time>2000-01-01T01:24:22.000Z</time></trkpt><trkpt lat="43.73652" lon="6.60396"><ele>1029</ele><time>2000-01-01T01:24:32.000Z</time></trkpt><trkpt lat="43.73653" lon="6.60451"><ele>1025</ele><time>2000-01-01T01:24:42.000Z</time></trkpt><trkpt lat="43.73654" lon="6.60485"><ele>1025</ele><time>2000-01-01T01:24:52.000Z</time></trkpt><trkpt lat="43.73652" lon="6.60523"><ele>1024</ele><time>2000-01-01T01:25:02.000Z</time></trkpt><trkpt lat="43.73652" lon="6.60557"><ele>1024</ele><time>2000-01-01T01:25:12.000Z</time></trkpt><trkpt lat="43.73652" lon="6.60574"><time>2000-01-01T01:25:22.000Z</time></trkpt><trkpt lat="43.73653" lon="6.60586"><ele>1028</ele><time>2000-01-01T01:25:32.000Z</time></trkpt><trkpt lat="43.73656" lon="6.606"><time>2000-01-01T01:25:42.000Z</time></trkpt><trkpt lat="43.73657" lon="6.6061"><time>2000-01-01T01:25:52.000Z</time></trkpt><trkpt lat="43.73661" lon="6.60658"><ele>1032</ele><time>2000-01-01T01:26:02.000Z</time></trkpt><trkpt lat="43.73663" lon="6.60668"><time>2000-01-01T01:26:12.000Z</time></trkpt><trkpt lat="43.73662" lon="6.60688"><ele>1033</ele><time>2000-01-01T01:26:22.000Z</time></trkpt><trkpt lat="43.73661" lon="6.60721"><ele>1031</ele><time>2000-01-01T01:26:32.000Z</time></trkpt><trkpt lat="43.73659" lon="6.60749"><ele>1032</ele><time>2000-01-01T01:26:42.000Z</time></trkpt><trkpt lat="43.73659" lon="6.60789"><ele>1033</ele><time>2000-01-01T01:26:52.000Z</time></trkpt><trkpt lat="43.7366" lon="6.60814"><time>2000-01-01T01:27:02.000Z</time></trkpt><trkpt lat="43.73663" lon="6.60827"><ele>1036</ele><time>2000-01-01T01:27:12.000Z</time></trkpt><trkpt lat="43.73669" lon="6.60855"><ele>1036</ele><time>2000-01-01T01:27:22.000Z</time></trkpt><trkpt lat="43.73673" lon="6.60883"><ele>1035</ele><time>2000-01-01T01:27:32.000Z</time></trkpt><trkpt lat="43.73675" lon="6.60913"><ele>1035</ele><time>2000-01-01T01:27:42.000Z</time></trkpt><trkpt lat="43.73674" lon="6.60967"><ele>1029</ele><time>2000-01-01T01:27:52.000Z</time></trkpt><trkpt lat="43.73672" lon="6.61013"><ele>1030</ele><time>2000-01-01T01:28:02.000Z</time></trkpt><trkpt lat="43.73667" lon="6.61058"><ele>1031</ele><time>2000-01-01T01:28:12.000Z</time></trkpt><trkpt lat="43.73661" lon="6.61091"><ele>1029</ele><time>2000-01-01T01:28:22.000Z</time></trkpt><trkpt lat="43.73656" lon="6.61125"><ele>1029</ele><time>2000-01-01T01:28:32.000Z</time></trkpt><trkpt lat="43.73649" lon="6.61158"><ele>1030</ele><time>2000-01-01T01:28:42.000Z</time></trkpt><trkpt lat="43.73646" lon="6.61171"><time>2000-01-01T01:28:52.000Z</time></trkpt><trkpt lat="43.73643" lon="6.61204"><ele>1031</ele><time>2000-01-01T01:29:02.000Z</time></trkpt><trkpt lat="43.73639" lon="6.61233"><ele>1029</ele><time>2000-01-01T01:29:12.000Z</time></trkpt><trkpt lat="43.73635" lon="6.61254"><time>2000-01-01T01:29:22.000Z</time></trkpt><trkpt lat="43.7362" lon="6.61269"><ele>1030</ele><time>2000-01-01T01:29:32.000Z</time></trkpt><trkpt lat="43.73609" lon="6.61281"><time>2000-01-01T01:29:42.000Z</time></trkpt><trkpt lat="43.73602" lon="6.61299"><ele>1026</ele><time>2000-01-01T01:29:52.000Z</time></trkpt><trkpt lat="43.73596" lon="6.61304"><time>2000-01-01T01:30:02.000Z</time></trkpt><trkpt lat="43.73567" lon="6.61304"><ele>1022</ele><time>2000-01-01T01:30:12.000Z</time></trkpt><trkpt lat="43.73535" lon="6.61304"><ele>1019</ele><time>2000-01-01T01:30:22.000Z</time></trkpt><trkpt lat="43.73518" lon="6.6131"><time>2000-01-01T01:30:32.000Z</time></trkpt><trkpt lat="43.73507" lon="6.61308"><ele>1014</ele><time>2000-01-01T01:30:42.000Z</time></trkpt><trkpt lat="43.73492" lon="6.61295"><time>2000-01-01T01:30:52.000Z</time></trkpt><trkpt lat="43.73453" lon="6.61289"><ele>1012</ele><time>2000-01-01T01:31:02.000Z</time></trkpt><trkpt lat="43.73425" lon="6.61288"><ele>1011</ele><time>2000-01-01T01:31:12.000Z</time></trkpt><trkpt lat="43.73411" lon="6.61291"><time>2000-01-01T01:31:22.000Z</time></trkpt><trkpt lat="43.73373" lon="6.61316"><ele>1003</ele><time>2000-01-01T01:31:32.000Z</time></trkpt><trkpt lat="43.73336" lon="6.61349"><ele>995</ele><time>2000-01-01T01:31:42.000Z</time></trkpt><trkpt lat="43.73322" lon="6.61356"><time>2000-01-01T01:31:52.000Z</time></trkpt><trkpt lat="43.73312" lon="6.61356"><ele>988</ele><time>2000-01-01T01:32:02.000Z</time></trkpt><trkpt lat="43.73299" lon="6.61345"><time>2000-01-01T01:32:12.000Z</time></trkpt><trkpt lat="43.73278" lon="6.61322"><ele>988</ele><time>2000-01-01T01:32:22.000Z</time></trkpt><trkpt lat="43.73268" lon="6.6131"><time>2000-01-01T01:32:32.000Z</time></trkpt><trkpt lat="43.73265" lon="6.613"><ele>988</ele><time>2000-01-01T01:32:42.000Z</time></trkpt><trkpt lat="43.73265" lon="6.61289"><time>2000-01-01T01:32:52.000Z</time></trkpt><trkpt lat="43.73273" lon="6.61252"><ele>988</ele><time>2000-01-01T01:33:02.000Z</time></trkpt><trkpt lat="43.73269" lon="6.61241"><time>2000-01-01T01:33:12.000Z</time></trkpt><trkpt lat="43.7326" lon="6.61245"><time>2000-01-01T01:33:22.000Z</time></trkpt><trkpt lat="43.73246" lon="6.61278"><ele>984</ele><time>2000-01-01T01:33:32.000Z</time></trkpt><trkpt lat="43.73211" lon="6.61319"><ele>982</ele><time>2000-01-01T01:33:42.000Z</time></trkpt><trkpt lat="43.73201" lon="6.61325"><time>2000-01-01T01:33:52.000Z</time></trkpt><trkpt lat="43.73163" lon="6.61335"><ele>977</ele><time>2000-01-01T01:34:02.000Z</time></trkpt><trkpt lat="43.73133" lon="6.61351"><ele>974</ele><time>2000-01-01T01:34:12.000Z</time></trkpt><trkpt lat="43.73112" lon="6.61367"><ele>969</ele><time>2000-01-01T01:34:22.000Z</time></trkpt><trkpt lat="43.7309" lon="6.61384"><ele>964</ele><time>2000-01-01T01:34:32.000Z</time></trkpt><trkpt lat="43.73071" lon="6.61394"><ele>964</ele><time>2000-01-01T01:34:42.000Z</time></trkpt><trkpt lat="43.73052" lon="6.61399"><time>2000-01-01T01:34:52.000Z</time></trkpt><trkpt lat="43.73031" lon="6.61416"><ele>959</ele><time>2000-01-01T01:35:02.000Z</time></trkpt><trkpt lat="43.73008" lon="6.61443"><ele>955</ele><time>2000-01-01T01:35:12.000Z</time></trkpt><trkpt lat="43.72995" lon="6.61462"><time>2000-01-01T01:35:22.000Z</time></trkpt><trkpt lat="43.72989" lon="6.61482"><ele>955</ele><time>2000-01-01T01:35:32.000Z</time></trkpt><trkpt lat="43.72983" lon="6.61529"><ele>956</ele><time>2000-01-01T01:35:42.000Z</time></trkpt><trkpt lat="43.72958" lon="6.61584"><ele>955</ele><time>2000-01-01T01:35:52.000Z</time></trkpt><trkpt lat="43.72932" lon="6.61639"><ele>955</ele><time>2000-01-01T01:36:02.000Z</time></trkpt><trkpt lat="43.72921" lon="6.61674"><ele>955</ele><time>2000-01-01T01:36:12.000Z</time></trkpt><trkpt lat="43.72908" lon="6.61721"><ele>952</ele><time>2000-01-01T01:36:22.000Z</time></trkpt><trkpt lat="43.72901" lon="6.61767"><ele>949</ele><time>2000-01-01T01:36:32.000Z</time></trkpt><trkpt lat="43.72924" lon="6.61788"><ele>949</ele><time>2000-01-01T01:36:42.000Z</time></trkpt><trkpt lat="43.72941" lon="6.61839"><ele>950</ele><time>2000-01-01T01:36:52.000Z</time></trkpt><trkpt lat="43.72953" lon="6.61873"><ele>952</ele><time>2000-01-01T01:37:02.000Z</time></trkpt><trkpt lat="43.72969" lon="6.61917"><ele>951</ele><time>2000-01-01T01:37:12.000Z</time></trkpt><trkpt lat="43.72974" lon="6.61934"><time>2000-01-01T01:37:22.000Z</time></trkpt><trkpt lat="43.72984" lon="6.61967"><ele>951</ele><time>2000-01-01T01:37:32.000Z</time></trkpt><trkpt lat="43.72997" lon="6.61992"><ele>956</ele><time>2000-01-01T01:37:42.000Z</time></trkpt><trkpt lat="43.73006" lon="6.61991"><time>2000-01-01T01:37:52.000Z</time></trkpt><trkpt lat="43.73017" lon="6.61997"><ele>956</ele><time>2000-01-01T01:38:02.000Z</time></trkpt><trkpt lat="43.73042" lon="6.6204"><ele>959</ele><time>2000-01-01T01:38:12.000Z</time></trkpt><trkpt lat="43.73047" lon="6.6205"><time>2000-01-01T01:38:22.000Z</time></trkpt><trkpt lat="43.73058" lon="6.62057"><ele>963</ele><time>2000-01-01T01:38:32.000Z</time></trkpt><trkpt lat="43.73071" lon="6.62056"><time>2000-01-01T01:38:42.000Z</time></trkpt><trkpt lat="43.73096" lon="6.62087"><ele>963</ele><time>2000-01-01T01:38:52.000Z</time></trkpt><trkpt lat="43.73112" lon="6.62104"><ele>963</ele><time>2000-01-01T01:39:02.000Z</time></trkpt><trkpt lat="43.73115" lon="6.62104"><time>2000-01-01T01:39:12.000Z</time></trkpt><trkpt lat="43.73123" lon="6.62088"><time>2000-01-01T01:39:22.000Z</time></trkpt><trkpt lat="43.73123" lon="6.62066"><ele>966</ele><time>2000-01-01T01:39:32.000Z</time></trkpt><trkpt lat="43.73119" lon="6.62055"><time>2000-01-01T01:39:42.000Z</time></trkpt><trkpt lat="43.73116" lon="6.62044"><time>2000-01-01T01:39:52.000Z</time></trkpt><trkpt lat="43.73124" lon="6.62036"><ele>970</ele><time>2000-01-01T01:40:02.000Z</time></trkpt></trkseg></trk></gpx>